Time;durP1;ratioP1;P1;durP2;ratioP2;P2;SDS_P1;SDS_P2;PMS_P1;PMS_P2;Temp;Humidity;BMP_temperature;BMP_pressure;BME280_temperature;BME280_humidity;BME280_pressure;Samples;Min_cycle;Max_cycle;Signal;HPM_P1;HPM_P2
2023/08/08 00:00:28;;;;;;;1.48;0.60;;;14.20;99.90;;;;;;4213286;28;20082;-65
2023/08/08 00:02:29;;;;;;;0.63;0.10;;;14.20;99.90;;;;;;4213404;28;20032;-64
2023/08/08 00:04:30;;;;;;;3.53;0.20;;;14.20;99.90;;;;;;4212979;28;20089;-61
2023/08/08 00:06:31;;;;;;;2.00;0.47;;;14.20;99.90;;;;;;4213339;28;20032;-63
2023/08/08 00:08:32;;;;;;;0.30;0.10;;;14.20;99.90;;;;;;4212057;28;20511;-64
2023/08/08 00:10:34;;;;;;;0.77;0.20;;;14.20;99.90;;;;;;4213228;28;20447;-66
2023/08/08 00:12:35;;;;;;;10.88;1.50;;;14.20;99.90;;;;;;4211779;28;20549;-64
2023/08/08 00:14:36;;;;;;;4.25;0.60;;;14.20;99.90;;;;;;4213140;28;20102;-68
2023/08/08 00:16:37;;;;;;;4.32;0.40;;;14.10;99.90;;;;;;4212893;28;20124;-65
2023/08/08 00:18:38;;;;;;;3.28;0.38;;;14.10;99.90;;;;;;4213494;28;20039;-68
2023/08/08 00:20:39;;;;;;;0.85;0.13;;;14.20;99.90;;;;;;4212536;28;20066;-64
2023/08/08 00:22:41;;;;;;;1.35;0.17;;;14.20;99.90;;;;;;4212707;28;20048;-67
2023/08/08 00:24:42;;;;;;;2.63;0.10;;;14.20;99.90;;;;;;4212956;28;20548;-68
2023/08/08 00:26:43;;;;;;;0.40;0.03;;;14.40;99.90;;;;;;4212607;28;20476;-65
2023/08/08 00:28:44;;;;;;;1.02;0.10;;;14.40;99.90;;;;;;4213140;28;20089;-64
2023/08/08 00:30:45;;;;;;;0.40;0.05;;;14.40;99.90;;;;;;4212077;28;20052;-62
2023/08/08 00:32:46;;;;;;;2.17;0.10;;;14.40;99.90;;;;;;4213866;28;20082;-63
2023/08/08 00:34:47;;;;;;;1.40;0.20;;;14.40;99.90;;;;;;4211432;28;20051;-62
2023/08/08 00:36:48;;;;;;;1.10;0.10;;;14.40;99.90;;;;;;4213651;28;20433;-66
2023/08/08 00:38:50;;;;;;;0.30;0.15;;;14.30;99.90;;;;;;4211588;28;20032;-61
2023/08/08 00:40:51;;;;;;;0.30;0.08;;;14.30;99.90;;;;;;4212635;28;21545;-62
2023/08/08 00:42:52;;;;;;;1.83;0.20;;;14.30;99.90;;;;;;4211304;28;20101;-62
2023/08/08 00:44:53;;;;;;;0.30;0.00;;;14.30;99.90;;;;;;4213863;28;20027;-65
2023/08/08 00:46:54;;;;;;;0.65;0.10;;;14.30;99.90;;;;;;4212663;28;20418;-64
2023/08/08 00:48:55;;;;;;;0.45;0.22;;;14.30;99.90;;;;;;4211909;28;20463;-63
2023/08/08 00:50:57;;;;;;;0.20;0.03;;;14.30;99.90;;;;;;4212196;28;20073;-62
2023/08/08 00:52:58;;;;;;;1.75;0.00;;;14.20;99.90;;;;;;4211900;28;20052;-61
2023/08/08 00:54:59;;;;;;;0.03;0.03;;;14.10;99.90;;;;;;4213239;28;20105;-62
2023/08/08 00:57:01;;;;;;;2.17;0.10;;;14.10;99.90;;;;;;4194191;28;20032;-70
2023/08/08 00:59:03;;;;;;;0.40;0.25;;;14.10;99.90;;;;;;4212784;28;20031;-63
2023/08/08 01:01:05;;;;;;;0.55;0.15;;;14.10;99.90;;;;;;4211954;28;20557;-66
2023/08/08 01:03:06;;;;;;;2.13;0.17;;;14.10;99.90;;;;;;4212754;28;20062;-64
2023/08/08 01:05:08;;;;;;;0.43;0.28;;;14.20;99.90;;;;;;4193344;28;20074;-66
2023/08/08 01:07:16;;;;;;;1.45;0.00;;;14.20;99.90;;;;;;4212819;28;20696;-62
2023/08/08 01:09:27;;;;;;;1.95;0.20;;;14.10;99.90;;;;;;4212146;28;20438;-62
2023/08/08 01:11:31;;;;;;;0.20;0.10;;;14.00;99.90;;;;;;4213165;28;20028;-65
2023/08/08 01:13:33;;;;;;;0.45;0.10;;;14.00;99.90;;;;;;4211070;28;20149;-65
2023/08/08 01:15:38;;;;;;;0.50;0.10;;;14.00;99.90;;;;;;4212733;28;20133;-63
2023/08/08 01:17:40;;;;;;;0.47;0.20;;;14.00;99.90;;;;;;4212138;28;20458;-61
2023/08/08 01:19:41;;;;;;;1.80;0.17;;;14.00;99.90;;;;;;4213055;28;20028;-69
2023/08/08 01:21:45;;;;;;;0.10;0.10;;;14.00;99.90;;;;;;4211734;28;20036;-61
2023/08/08 01:23:53;;;;;;;0.10;0.00;;;13.90;99.90;;;;;;4212154;28;20085;-65
2023/08/08 01:25:55;;;;;;;0.13;0.03;;;13.90;99.90;;;;;;4212182;28;20446;-62
2023/08/08 01:27:56;;;;;;;1.27;0.13;;;13.80;99.90;;;;;;4212612;28;20089;-63
2023/08/08 01:29:57;;;;;;;2.85;0.10;;;13.90;99.90;;;;;;4211278;28;20472;-64
2023/08/08 01:31:58;;;;;;;0.25;0.10;;;13.90;99.90;;;;;;4211469;28;20161;-61
2023/08/08 01:34:00;;;;;;;2.08;0.50;;;13.90;99.90;;;;;;4211628;28;20036;-64
2023/08/08 01:36:10;;;;;;;1.65;0.20;;;13.80;99.90;;;;;;4211306;28;20036;-63
2023/08/08 01:38:23;;;;;;;2.90;0.40;;;13.80;99.90;;;;;;4211191;28;20442;-70
2023/08/08 01:40:25;;;;;;;3.33;0.20;;;13.70;99.90;;;;;;4211763;28;20442;-68
2023/08/08 01:42:27;;;;;;;0.80;0.30;;;13.60;99.90;;;;;;4211952;28;20081;-64
2023/08/08 01:44:29;;;;;;;2.40;0.70;;;13.50;99.90;;;;;;4211823;28;20093;-59
2023/08/08 01:46:31;;;;;;;1.58;0.43;;;13.50;99.90;;;;;;4212287;28;20415;-64
2023/08/08 01:48:33;;;;;;;2.58;0.30;;;13.50;99.90;;;;;;4211530;28;20042;-64
2023/08/08 01:50:34;;;;;;;0.40;0.10;;;13.50;99.90;;;;;;4208012;28;20078;-59
2023/08/08 01:52:35;;;;;;;1.58;0.20;;;13.30;99.90;;;;;;4210312;28;20032;-61
2023/08/08 01:54:36;;;;;;;0.53;0.10;;;13.10;99.90;;;;;;4212475;28;20143;-61
2023/08/08 01:56:37;;;;;;;0.80;0.20;;;13.00;99.90;;;;;;4210890;28;20036;-61
2023/08/08 01:58:38;;;;;;;0.87;0.17;;;12.90;99.90;;;;;;4211426;28;20052;-66
2023/08/08 02:00:41;;;;;;;0.47;0.10;;;12.80;99.90;;;;;;4211047;28;20039;-61
2023/08/08 02:02:42;;;;;;;0.20;0.10;;;12.80;99.90;;;;;;4212487;28;20020;-60
2023/08/08 02:04:44;;;;;;;1.03;0.10;;;12.90;99.90;;;;;;4211355;28;20467;-64
2023/08/08 02:06:45;;;;;;;0.23;0.20;;;13.00;99.90;;;;;;4212115;28;20036;-61
2023/08/08 02:08:46;;;;;;;0.17;0.10;;;13.10;99.90;;;;;;4211319;28;20032;-61
2023/08/08 02:10:47;;;;;;;0.83;0.33;;;13.10;99.90;;;;;;4210629;28;20097;-61
2023/08/08 02:12:48;;;;;;;0.77;0.20;;;13.10;99.90;;;;;;4211658;28;20024;-61
2023/08/08 02:14:49;;;;;;;8.70;0.60;;;13.00;99.90;;;;;;4211443;28;20048;-61
2023/08/08 02:16:50;;;;;;;1.67;0.20;;;12.90;99.90;;;;;;4211883;28;20027;-60
2023/08/08 02:18:51;;;;;;;5.97;1.17;;;12.90;99.90;;;;;;4210534;28;20441;-65
2023/08/08 02:20:52;;;;;;;2.20;0.40;;;12.90;99.90;;;;;;4211521;28;20372;-60
2023/08/08 02:22:53;;;;;;;5.80;0.20;;;12.80;99.90;;;;;;4210918;28;20036;-67
2023/08/08 02:24:54;;;;;;;1.10;0.40;;;12.80;99.90;;;;;;4194180;28;20032;-61
2023/08/08 02:26:56;;;;;;;3.40;0.37;;;12.80;99.90;;;;;;4209815;28;20560;-67
2023/08/08 02:28:57;;;;;;;1.80;0.50;;;12.80;99.90;;;;;;4211802;28;20089;-60
2023/08/08 02:30:59;;;;;;;0.20;0.10;;;12.80;99.90;;;;;;4210734;28;20028;-60
2023/08/08 02:33:00;;;;;;;1.10;0.40;;;12.70;99.90;;;;;;4212034;28;20032;-65
2023/08/08 02:35:01;;;;;;;3.87;0.70;;;12.60;99.90;;;;;;4210619;28;20032;-67
2023/08/08 02:37:03;;;;;;;0.43;0.20;;;12.60;99.90;;;;;;4211825;28;20089;-61
2023/08/08 02:39:04;;;;;;;5.70;0.33;;;12.60;99.90;;;;;;4209469;28;20069;-61
2023/08/08 02:41:05;;;;;;;1.43;0.50;;;12.70;99.90;;;;;;4211475;28;20032;-70
2023/08/08 02:43:06;;;;;;;0.83;0.30;;;12.70;99.90;;;;;;4210573;28;20092;-61
2023/08/08 02:45:07;;;;;;;1.73;0.30;;;12.60;99.90;;;;;;4210376;28;20089;-61
2023/08/08 02:47:09;;;;;;;1.17;0.20;;;12.60;99.90;;;;;;4210816;28;20085;-60
2023/08/08 02:49:10;;;;;;;4.63;1.13;;;12.50;99.90;;;;;;4210347;28;20794;-63
2023/08/08 02:51:11;;;;;;;4.03;1.00;;;12.50;99.90;;;;;;4211467;28;20073;-61
2023/08/08 02:53:12;;;;;;;5.03;0.83;;;12.50;99.90;;;;;;4209640;28;20101;-62
2023/08/08 02:55:13;;;;;;;9.63;0.93;;;12.50;99.90;;;;;;4211287;28;20483;-61
2023/08/08 02:57:15;;;;;;;11.43;1.70;;;12.60;99.90;;;;;;4209612;28;20801;-61
2023/08/08 02:59:16;;;;;;;8.33;1.30;;;12.70;99.90;;;;;;4211596;28;20524;-61
2023/08/08 03:01:17;;;;;;;12.33;2.17;;;12.60;99.90;;;;;;4209934;28;20028;-64
2023/08/08 03:03:18;;;;;;;5.97;1.20;;;12.70;99.90;;;;;;4211197;28;20085;-62
2023/08/08 03:05:20;;;;;;;6.77;2.17;;;12.60;99.90;;;;;;4209667;28;20044;-66
2023/08/08 03:07:21;;;;;;;11.13;3.00;;;12.60;99.90;;;;;;4210345;28;20097;-60
2023/08/08 03:09:22;;;;;;;9.37;3.90;;;12.60;99.90;;;;;;4209512;28;20040;-62
2023/08/08 03:11:23;;;;;;;9.00;3.80;;;12.50;99.90;;;;;;4210355;28;20040;-61
2023/08/08 03:13:24;;;;;;;10.40;3.50;;;12.60;99.90;;;;;;4210035;28;20077;-60
2023/08/08 03:15:25;;;;;;;11.50;3.60;;;12.60;99.90;;;;;;4209844;28;20048;-62
2023/08/08 03:17:26;;;;;;;11.80;3.57;;;12.60;99.90;;;;;;4209513;28;20028;-61
2023/08/08 03:19:27;;;;;;;11.50;4.70;;;12.60;99.90;;;;;;4209646;28;20418;-63
2023/08/08 03:21:28;;;;;;;12.67;4.00;;;12.60;99.90;;;;;;4209796;28;20028;-61
2023/08/08 03:23:30;;;;;;;10.23;3.50;;;12.70;99.90;;;;;;4209389;28;20549;-64
2023/08/08 03:25:31;;;;;;;8.73;3.27;;;12.70;99.90;;;;;;4211529;28;20158;-62
2023/08/08 03:27:32;;;;;;;7.70;1.70;;;12.70;99.90;;;;;;4208545;28;20020;-63
2023/08/08 03:29:33;;;;;;;6.77;2.07;;;12.70;99.90;;;;;;4210094;28;20089;-65
2023/08/08 03:31:34;;;;;;;13.80;1.97;;;12.60;99.90;;;;;;4209676;28;20036;-61
2023/08/08 03:33:35;;;;;;;5.53;1.20;;;12.60;99.90;;;;;;4210185;28;20039;-63
2023/08/08 03:35:36;;;;;;;4.33;0.60;;;12.60;99.90;;;;;;4209101;28;20496;-62
2023/08/08 03:37:37;;;;;;;3.07;0.53;;;12.60;99.90;;;;;;4211059;28;20105;-62
2023/08/08 03:39:39;;;;;;;2.07;0.70;;;12.60;99.90;;;;;;4208652;28;20044;-61
2023/08/08 03:41:40;;;;;;;2.77;1.03;;;12.60;99.90;;;;;;4210454;28;20102;-60
2023/08/08 03:43:41;;;;;;;1.57;0.50;;;12.60;99.90;;;;;;4209724;28;20036;-61
2023/08/08 03:45:42;;;;;;;1.33;0.20;;;12.60;99.90;;;;;;4210020;28;20036;-63
2023/08/08 03:47:43;;;;;;;1.93;0.37;;;12.70;99.90;;;;;;4210055;28;20529;-64
2023/08/08 03:49:44;;;;;;;1.20;0.50;;;12.70;99.90;;;;;;4191479;28;20492;-61
2023/08/08 03:51:48;;;;;;;1.53;0.50;;;12.70;99.90;;;;;;4192069;28;20045;-66
2023/08/08 03:53:49;;;;;;;0.70;0.30;;;12.80;99.90;;;;;;4193241;28;20109;-61
2023/08/08 03:55:50;;;;;;;0.50;0.20;;;12.80;99.90;;;;;;4194180;28;20434;-62
2023/08/08 03:57:51;;;;;;;2.67;0.50;;;12.90;99.90;;;;;;4192095;28;20407;-62
2023/08/08 03:59:52;;;;;;;1.70;0.27;;;12.90;99.90;;;;;;4193533;28;20048;-60
2023/08/08 04:01:54;;;;;;;3.20;0.40;;;12.90;99.90;;;;;;4192055;28;20114;-60
2023/08/08 04:03:55;;;;;;;1.80;0.20;;;12.90;99.90;;;;;;4193994;28;20048;-61
2023/08/08 04:05:56;;;;;;;0.53;0.30;;;12.90;99.90;;;;;;4192835;28;20086;-62
2023/08/08 04:07:57;;;;;;;0.83;0.20;;;13.00;99.90;;;;;;4193579;28;20161;-64
2023/08/08 04:09:58;;;;;;;3.10;0.60;;;13.00;99.90;;;;;;4191991;28;20044;-64
2023/08/08 04:11:59;;;;;;;1.03;0.33;;;13.10;99.90;;;;;;4192376;28;20102;-62
2023/08/08 04:14:00;;;;;;;3.40;0.57;;;13.10;99.90;;;;;;4192543;28;20105;-60
2023/08/08 04:16:01;;;;;;;0.70;0.30;;;13.20;99.90;;;;;;4193248;28;20110;-61
2023/08/08 04:18:03;;;;;;;2.90;0.30;;;13.30;99.90;;;;;;4192688;28;20029;-62
2023/08/08 04:20:06;;;;;;;1.27;0.50;;;13.30;99.90;;;;;;4193317;28;20073;-61
2023/08/08 04:22:07;;;;;;;0.50;0.30;;;13.30;99.90;;;;;;4193245;28;20058;-60
2023/08/08 04:24:08;;;;;;;2.00;0.70;;;13.30;99.90;;;;;;4192491;28;20082;-61
2023/08/08 04:26:09;;;;;;;0.60;0.20;;;13.40;99.90;;;;;;4193525;28;20497;-62
2023/08/08 04:28:10;;;;;;;2.77;1.00;;;13.40;99.90;;;;;;4192611;28;20468;-64
2023/08/08 04:30:11;;;;;;;16.50;10.70;;;13.50;99.90;;;;;;4193158;28;20048;-62
2023/08/08 04:32:12;;;;;;;1.07;0.70;;;13.60;99.90;;;;;;4192284;28;20045;-63
2023/08/08 04:34:14;;;;;;;1.10;0.30;;;13.60;99.90;;;;;;4193762;28;20037;-63
2023/08/08 04:36:15;;;;;;;2.90;0.50;;;13.60;99.90;;;;;;4192398;28;20467;-60
2023/08/08 04:38:16;;;;;;;1.73;0.37;;;13.70;99.90;;;;;;4193856;28;20033;-61
2023/08/08 04:40:17;;;;;;;2.90;0.67;;;13.70;99.90;;;;;;4192172;28;20032;-61
2023/08/08 04:42:18;;;;;;;1.63;0.70;;;13.80;99.90;;;;;;4191668;28;20044;-62
2023/08/08 04:44:19;;;;;;;1.00;0.40;;;13.80;99.90;;;;;;4195132;28;20368;-62
2023/08/08 04:46:20;;;;;;;3.30;0.40;;;13.90;99.90;;;;;;4196631;28;20456;-62
2023/08/08 04:48:21;;;;;;;1.30;0.40;;;14.00;99.90;;;;;;4195310;28;20151;-59
2023/08/08 04:50:22;;;;;;;0.50;0.43;;;14.00;99.90;;;;;;4208871;28;20105;-61
2023/08/08 04:52:23;;;;;;;3.55;0.30;;;14.00;99.90;;;;;;4212527;28;20081;-60
2023/08/08 04:54:25;;;;;;;0.30;0.20;;;14.00;99.90;;;;;;4212633;28;20158;-61
2023/08/08 04:56:26;;;;;;;2.60;0.65;;;14.00;99.90;;;;;;4212080;28;20097;-60
2023/08/08 04:58:27;;;;;;;1.30;0.50;;;14.10;99.90;;;;;;4211784;28;20102;-62
2023/08/08 05:00:28;;;;;;;1.48;0.50;;;14.00;99.90;;;;;;4213016;28;20422;-62
2023/08/08 05:02:29;;;;;;;4.47;0.70;;;14.10;99.90;;;;;;4210866;28;20040;-61
2023/08/08 05:04:31;;;;;;;4.28;0.90;;;14.10;99.90;;;;;;4212110;28;20405;-63
2023/08/08 05:06:32;;;;;;;1.67;0.60;;;14.10;99.90;;;;;;4211223;28;20040;-61
2023/08/08 05:08:33;;;;;;;1.65;0.32;;;14.10;99.90;;;;;;4213057;28;20375;-65
2023/08/08 05:10:34;;;;;;;1.20;0.47;;;14.10;99.90;;;;;;4193014;28;20054;-63
2023/08/08 05:12:35;;;;;;;10.50;1.88;;;14.20;99.90;;;;;;4213010;28;20028;-62
2023/08/08 05:14:36;;;;;;;15.55;2.80;;;14.20;99.90;;;;;;4211810;28;20362;-65
2023/08/08 05:16:37;;;;;;;8.07;2.42;;;14.20;99.90;;;;;;4212256;28;20453;-61
2023/08/08 05:18:38;;;;;;;10.10;3.22;;;14.30;99.90;;;;;;4211747;28;20016;-62
2023/08/08 05:20:40;;;;;;;5.80;1.20;;;14.40;99.90;;;;;;4212727;28;20093;-62
2023/08/08 05:22:41;;;;;;;10.98;1.77;;;14.70;99.90;;;;;;4211900;28;20541;-60
2023/08/08 05:24:42;;;;;;;8.35;2.50;;;14.90;99.90;;;;;;4211603;28;20406;-61
2023/08/08 05:26:43;;;;;;;4.72;1.30;;;15.20;99.90;;;;;;4212452;28;20081;-62
2023/08/08 05:28:44;;;;;;;11.38;2.60;;;15.50;99.90;;;;;;4211666;28;20032;-63
2023/08/08 05:30:45;;;;;;;22.65;2.97;;;15.60;99.90;;;;;;4211541;28;20033;-62
2023/08/08 05:32:46;;;;;;;27.77;4.30;;;15.70;99.90;;;;;;4211327;28;20028;-61
2023/08/08 05:34:49;;;;;;;19.25;2.60;;;15.80;99.90;;;;;;4212433;28;20108;-61
2023/08/08 05:36:50;;;;;;;9.02;2.78;;;15.90;99.90;;;;;;4210533;28;20476;-61
2023/08/08 05:38:51;;;;;;;8.75;1.40;;;16.10;99.90;;;;;;4212624;28;20468;-64
2023/08/08 05:40:52;;;;;;;9.20;1.23;;;16.20;99.90;;;;;;4211267;28;20430;-67
2023/08/08 05:42:53;;;;;;;10.07;2.08;;;16.10;99.90;;;;;;4212465;28;20028;-63
2023/08/08 05:44:54;;;;;;;11.30;1.92;;;16.00;99.90;;;;;;4210547;28;20055;-67
2023/08/08 05:46:55;;;;;;;7.07;1.83;;;16.00;99.90;;;;;;4211865;28;20548;-64
2023/08/08 05:48:56;;;;;;;12.93;1.95;;;15.90;99.90;;;;;;4210711;28;20056;-71
2023/08/08 05:50:58;;;;;;;12.70;1.63;;;15.90;99.90;;;;;;4211878;28;20085;-71
2023/08/08 05:52:59;;;;;;;16.15;2.08;;;15.80;99.90;;;;;;4211458;28;20110;-67
2023/08/08 05:55:01;;;;;;;18.95;2.85;;;15.70;99.90;;;;;;4211652;28;20032;-61
2023/08/08 05:57:03;;;;;;;10.65;1.88;;;15.70;99.90;;;;;;4211998;28;20066;-71
2023/08/08 05:59:04;;;;;;;9.25;1.30;;;15.90;99.90;;;;;;4211127;28;20025;-69
2023/08/08 06:01:09;;;;;;;3.40;0.70;;;16.20;99.90;;;;;;4212081;28;20024;-57
2023/08/08 06:03:10;;;;;;;1.27;0.30;;;16.50;99.90;;;;;;4210616;28;20089;-62
2023/08/08 06:05:12;;;;;;;2.13;0.50;;;16.70;99.90;;;;;;4212052;28;20097;-66
2023/08/08 06:07:13;;;;;;;0.95;0.32;;;16.90;99.90;;;;;;4211031;28;20418;-62
2023/08/08 06:09:15;;;;;;;0.63;0.52;;;17.30;99.90;;;;;;4211896;28;20462;-61
2023/08/08 06:11:17;;;;;;;2.00;0.20;;;17.30;99.90;;;;;;4210149;28;20093;-61
2023/08/08 06:13:18;;;;;;;3.30;0.45;;;17.00;99.90;;;;;;4211252;28;20476;-60
2023/08/08 06:15:19;;;;;;;0.82;0.50;;;17.10;99.90;;;;;;4210557;28;20113;-65
2023/08/08 06:17:20;;;;;;;1.50;0.40;;;17.10;99.90;;;;;;4211149;28;20089;-62
2023/08/08 06:19:21;;;;;;;1.30;0.82;;;17.30;99.90;;;;;;4210251;28;20476;-61
2023/08/08 06:21:23;;;;;;;3.95;0.43;;;17.30;99.90;;;;;;4211533;28;20036;-61
2023/08/08 06:23:24;;;;;;;0.57;0.30;;;16.90;99.90;;;;;;4210627;28;20028;-62
2023/08/08 06:25:25;;;;;;;1.13;0.30;;;16.60;99.90;;;;;;4211868;28;20565;-60
2023/08/08 06:27:26;;;;;;;2.53;0.52;;;16.50;99.90;;;;;;4211034;28;20040;-61
2023/08/08 06:29:27;;;;;;;3.58;0.50;;;16.20;99.90;;;;;;4211010;28;20036;-61
2023/08/08 06:31:29;;;;;;;9.50;1.15;;;16.20;99.90;;;;;;4211015;28;20008;-60
2023/08/08 06:33:30;;;;;;;2.17;0.40;;;16.20;99.90;;;;;;4209862;28;20147;-60
2023/08/08 06:35:31;;;;;;;2.38;1.15;;;16.10;99.90;;;;;;4211326;28;20093;-60
2023/08/08 06:37:32;;;;;;;3.42;0.50;;;16.10;99.90;;;;;;4210569;28;20476;-61
2023/08/08 06:39:34;;;;;;;1.98;0.70;;;16.00;99.90;;;;;;4211763;28;20480;-61
2023/08/08 06:41:36;;;;;;;0.70;0.40;;;15.80;99.90;;;;;;4191492;28;20033;-60
2023/08/08 06:43:37;;;;;;;0.70;0.40;;;15.70;99.90;;;;;;4211460;28;20024;-61
2023/08/08 06:45:38;;;;;;;0.75;0.60;;;15.60;99.90;;;;;;4209863;28;20098;-62
2023/08/08 06:47:39;;;;;;;1.80;0.60;;;15.60;99.90;;;;;;4211522;28;20058;-60
2023/08/08 06:49:40;;;;;;;4.50;0.80;;;15.70;99.90;;;;;;4210146;28;20044;-63
2023/08/08 06:51:41;;;;;;;1.23;0.57;;;15.70;99.90;;;;;;4211661;28;20481;-62
2023/08/08 06:53:43;;;;;;;0.57;0.50;;;15.80;99.90;;;;;;4210344;28;20442;-62
2023/08/08 06:55:44;;;;;;;0.40;0.30;;;15.90;99.90;;;;;;4210673;28;20048;-59
2023/08/08 06:57:46;;;;;;;3.45;0.40;;;15.80;99.90;;;;;;4191949;28;20078;-60
2023/08/08 06:59:50;;;;;;;3.20;0.60;;;15.80;99.90;;;;;;4210916;28;20024;-62
2023/08/08 07:01:51;;;;;;;4.70;0.68;;;15.80;99.90;;;;;;4210436;28;20164;-69
2023/08/08 07:03:52;;;;;;;1.60;0.30;;;15.90;99.90;;;;;;4210565;28;20028;-61
2023/08/08 07:05:53;;;;;;;3.03;0.65;;;16.20;99.90;;;;;;4210265;28;20032;-61
2023/08/08 07:07:54;;;;;;;1.65;0.55;;;16.50;99.90;;;;;;4210109;28;20085;-65
2023/08/08 07:09:55;;;;;;;0.93;0.60;;;16.70;99.90;;;;;;4210277;28;20040;-64
2023/08/08 07:11:56;;;;;;;1.27;0.30;;;16.80;99.90;;;;;;4209451;28;20035;-60
2023/08/08 07:13:58;;;;;;;4.40;0.50;;;16.80;99.90;;;;;;4211077;28;20314;-61
2023/08/08 07:15:59;;;;;;;2.38;0.70;;;16.90;99.90;;;;;;4209771;28;20521;-60
2023/08/08 07:18:00;;;;;;;1.77;0.45;;;16.80;99.90;;;;;;4210159;28;20035;-61
2023/08/08 07:20:02;;;;;;;9.52;0.90;;;16.70;99.90;;;;;;4209743;28;20434;-62
2023/08/08 07:22:03;;;;;;;6.03;0.90;;;16.50;99.90;;;;;;4210259;28;20036;-66
2023/08/08 07:24:04;;;;;;;3.60;0.47;;;16.50;99.90;;;;;;4209725;28;20089;-60
2023/08/08 07:26:05;;;;;;;0.57;0.20;;;16.50;99.90;;;;;;4210709;28;20101;-63
2023/08/08 07:28:06;;;;;;;1.30;0.10;;;16.50;99.90;;;;;;4209646;28;20028;-68
2023/08/08 07:30:08;;;;;;;3.13;0.30;;;16.60;99.90;;;;;;4192230;28;20036;-69
2023/08/08 07:32:09;;;;;;;2.28;0.70;;;16.50;99.90;;;;;;4210011;28;20025;-62
2023/08/08 07:34:10;;;;;;;0.77;0.28;;;16.50;99.90;;;;;;4210385;28;20028;-59
2023/08/08 07:36:12;;;;;;;2.65;0.20;;;16.50;99.90;;;;;;4210147;28;20044;-62
2023/08/08 07:38:13;;;;;;;1.30;0.65;;;16.50;99.90;;;;;;4209668;28;20028;-63
2023/08/08 07:40:19;;;;;;;0.30;0.10;;;16.30;99.90;;;;;;4210311;28;20036;-62
2023/08/08 07:42:20;;;;;;;1.38;0.28;;;16.20;99.90;;;;;;4209549;28;20552;-62
2023/08/08 07:44:21;;;;;;;1.40;0.20;;;16.30;99.90;;;;;;4192048;28;20040;-65
2023/08/08 07:46:22;;;;;;;0.50;0.30;;;16.30;99.90;;;;;;4209576;28;20152;-61
2023/08/08 07:48:23;;;;;;;0.38;0.30;;;16.50;99.90;;;;;;4210498;28;20043;-71
2023/08/08 07:50:25;;;;;;;6.32;0.85;;;16.90;99.90;;;;;;4209064;28;20089;-61
2023/08/08 07:52:26;;;;;;;1.13;0.40;;;17.30;99.90;;;;;;4210579;28;20036;-65
2023/08/08 07:54:27;;;;;;;0.50;0.20;;;17.70;99.90;;;;;;4208637;28;20044;-61
2023/08/08 07:56:28;;;;;;;2.50;0.45;;;18.20;99.90;;;;;;4210146;28;20044;-61
2023/08/08 07:58:29;;;;;;;2.20;0.30;;;18.70;99.90;;;;;;4209333;28;20410;-67
2023/08/08 08:00:30;;;;;;;1.80;0.80;;;18.90;99.90;;;;;;4209761;28;20065;-64
2023/08/08 08:02:31;;;;;;;2.35;0.43;;;19.30;99.90;;;;;;4208640;28;20040;-61
2023/08/08 08:04:33;;;;;;;2.03;0.63;;;19.70;99.90;;;;;;4210136;28;20133;-62
2023/08/08 08:06:34;;;;;;;2.28;0.28;;;19.50;99.90;;;;;;4191357;28;20033;-60
2023/08/08 08:08:35;;;;;;;1.70;0.40;;;19.60;99.90;;;;;;4209857;28;20407;-61
2023/08/08 08:10:36;;;;;;;1.05;0.40;;;20.00;99.90;;;;;;4209885;28;20122;-61
2023/08/08 08:12:37;;;;;;;1.73;0.30;;;20.40;99.90;;;;;;4208540;28;20117;-61
2023/08/08 08:14:38;;;;;;;2.60;0.40;;;20.80;99.90;;;;;;4209869;28;20093;-60
2023/08/08 08:16:39;;;;;;;0.57;0.30;;;21.20;99.90;;;;;;4209082;28;20537;-60
2023/08/08 08:18:41;;;;;;;2.55;0.50;;;21.50;99.90;;;;;;4212792;28;20044;-70
2023/08/08 08:20:42;;;;;;;0.52;0.40;;;21.70;99.90;;;;;;4211325;28;20036;-61
2023/08/08 08:22:44;;;;;;;2.67;0.40;;;21.90;99.90;;;;;;4213443;28;20077;-63
2023/08/08 08:24:45;;;;;;;0.85;0.45;;;21.90;99.90;;;;;;4212398;28;20040;-70
2023/08/08 08:26:47;;;;;;;0.82;0.35;;;21.70;99.90;;;;;;4213619;28;20029;-61
2023/08/08 08:28:48;;;;;;;8.60;0.95;;;21.60;99.90;;;;;;4211238;28;20097;-62
2023/08/08 08:30:49;;;;;;;1.65;0.35;;;21.60;99.90;;;;;;4212723;28;20051;-64
2023/08/08 08:32:51;;;;;;;0.75;0.30;;;21.80;99.90;;;;;;4211332;28;20573;-62
2023/08/08 08:34:52;;;;;;;0.73;0.22;;;22.00;99.90;;;;;;4213176;28;20077;-60
2023/08/08 08:36:53;;;;;;;0.65;0.40;;;22.20;99.90;;;;;;4212434;28;20503;-60
2023/08/08 08:38:54;;;;;;;0.70;0.35;;;22.20;99.80;;;;;;4212744;28;20105;-67
2023/08/08 08:40:57;;;;;;;2.88;0.50;;;21.70;99.90;;;;;;4212327;28;20016;-66
2023/08/08 08:42:58;;;;;;;2.50;0.68;;;21.50;99.90;;;;;;4212460;28;20546;-62
2023/08/08 08:45:01;;;;;;;0.95;0.28;;;21.40;99.90;;;;;;4211700;28;20035;-62
2023/08/08 08:47:03;;;;;;;2.28;0.40;;;21.30;99.90;;;;;;4212171;28;20032;-72
2023/08/08 08:49:08;;;;;;;5.45;1.23;;;21.20;99.80;;;;;;4212814;28;20036;-67
2023/08/08 08:51:10;;;;;;;0.73;0.30;;;21.20;99.90;;;;;;4211361;28;20105;-60
2023/08/08 08:53:12;;;;;;;1.45;0.22;;;21.10;99.90;;;;;;4213345;28;20028;-71
2023/08/08 08:55:13;;;;;;;1.13;0.30;;;21.30;99.80;;;;;;4212016;28;20103;-61
2023/08/08 08:57:15;;;;;;;4.18;0.30;;;21.60;99.30;;;;;;4212181;28;20039;-61
2023/08/08 08:59:16;;;;;;;1.27;0.30;;;21.90;99.00;;;;;;4211212;28;20117;-60
2023/08/08 09:01:18;;;;;;;1.85;0.30;;;22.10;98.70;;;;;;4212438;28;20044;-60
2023/08/08 09:03:20;;;;;;;0.50;0.30;;;22.30;98.50;;;;;;4211017;28;20036;-61
2023/08/08 09:05:21;;;;;;;0.80;0.30;;;22.40;98.30;;;;;;4212386;28;20113;-65
2023/08/08 09:07:26;;;;;;;0.82;0.35;;;22.50;98.00;;;;;;4211220;28;20165;-60
2023/08/08 09:09:31;;;;;;;0.50;0.25;;;22.70;97.80;;;;;;4212838;28;20078;-61
2023/08/08 09:11:34;;;;;;;1.25;0.30;;;22.90;97.50;;;;;;4211638;28;20035;-63
2023/08/08 09:13:39;;;;;;;1.65;0.30;;;23.20;97.40;;;;;;4212638;28;20032;-62
2023/08/08 09:15:40;;;;;;;0.60;0.30;;;23.40;97.00;;;;;;4210966;28;20434;-63
2023/08/08 09:17:43;;;;;;;2.33;0.68;;;23.30;96.80;;;;;;4211557;28;20109;-66
2023/08/08 09:19:46;;;;;;;0.80;0.20;;;23.00;96.90;;;;;;4212123;28;20081;-59
2023/08/08 09:21:48;;;;;;;1.52;0.55;;;22.60;96.90;;;;;;4211326;28;20481;-72
2023/08/08 09:23:49;;;;;;;1.20;0.30;;;22.30;97.30;;;;;;4211486;28;20434;-64
2023/08/08 09:25:51;;;;;;;2.63;0.47;;;22.20;97.60;;;;;;4211133;28;20047;-60
2023/08/08 09:27:53;;;;;;;5.25;0.95;;;22.40;97.40;;;;;;4212618;28;20028;-65
2023/08/08 09:29:54;;;;;;;2.10;0.40;;;22.40;97.20;;;;;;4210763;28;20471;-60
2023/08/08 09:31:55;;;;;;;2.30;0.60;;;22.30;97.20;;;;;;4212052;28;20441;-65
2023/08/08 09:33:58;;;;;;;11.48;0.77;;;22.10;97.30;;;;;;4210383;28;20097;-63
2023/08/08 09:35:59;;;;;;;5.55;0.40;;;21.80;97.50;;;;;;4212003;28;20437;-60
2023/08/08 09:38:00;;;;;;;2.25;0.30;;;21.90;97.70;;;;;;4211464;28;20023;-62
2023/08/08 09:40:05;;;;;;;3.42;0.63;;;22.20;97.60;;;;;;4211731;28;20036;-60
2023/08/08 09:42:08;;;;;;;0.32;0.32;;;22.40;97.50;;;;;;4210728;28;20048;-66
2023/08/08 09:44:09;;;;;;;1.73;0.68;;;22.60;97.30;;;;;;4212174;28;20044;-62
2023/08/08 09:46:10;;;;;;;2.53;0.55;;;22.80;97.20;;;;;;4211376;28;20032;-64
2023/08/08 09:48:11;;;;;;;2.33;0.43;;;22.50;96.80;;;;;;4212204;28;20105;-70
2023/08/08 09:50:13;;;;;;;3.00;0.93;;;22.50;96.80;;;;;;4211290;28;20044;-61
2023/08/08 09:52:15;;;;;;;2.33;0.80;;;22.10;97.00;;;;;;4210379;28;20039;-60
2023/08/08 09:54:17;;;;;;;2.20;0.80;;;21.60;97.20;;;;;;4210496;28;20040;-61
2023/08/08 09:56:19;;;;;;;3.42;0.57;;;21.10;97.70;;;;;;4211234;28;20104;-62
2023/08/08 09:58:20;;;;;;;1.38;0.65;;;20.90;98.00;;;;;;4211738;28;20065;-66
2023/08/08 10:00:22;;;;;;;2.08;0.50;;;20.50;98.20;;;;;;4211074;28;20036;-62
2023/08/08 10:02:23;;;;;;;3.00;0.60;;;20.20;98.50;;;;;;4212278;28;20024;-66
2023/08/08 10:04:25;;;;;;;2.00;0.40;;;20.20;98.60;;;;;;4211133;28;20082;-62
2023/08/08 10:06:27;;;;;;;6.00;1.13;;;20.10;98.90;;;;;;4211709;28;20035;-69
2023/08/08 10:08:30;;;;;;;4.05;0.50;;;20.10;99.00;;;;;;4209925;28;20040;-61
2023/08/08 10:10:31;;;;;;;3.30;0.60;;;20.30;99.10;;;;;;4211914;28;20036;-61
2023/08/08 10:12:32;;;;;;;5.85;0.60;;;20.40;99.00;;;;;;4211018;28;20074;-61
2023/08/08 10:14:37;;;;;;;2.65;0.30;;;20.40;99.20;;;;;;4211930;28;20069;-66
2023/08/08 10:16:38;;;;;;;3.78;0.60;;;20.50;99.20;;;;;;4210654;28;20040;-65
2023/08/08 10:18:40;;;;;;;3.38;0.63;;;20.60;99.20;;;;;;4211866;28;20141;-61
2023/08/08 10:20:47;;;;;;;2.00;0.20;;;20.60;99.30;;;;;;4210130;28;20039;-69
2023/08/08 10:22:48;;;;;;;0.40;0.30;;;20.60;99.30;;;;;;4211932;28;20040;-65
2023/08/08 10:24:52;;;;;;;3.13;0.30;;;20.50;99.00;;;;;;4210896;28;20023;-61
2023/08/08 10:27:00;;;;;;;1.73;0.25;;;20.50;99.10;;;;;;4212117;28;20384;-72
2023/08/08 10:29:01;;;;;;;0.30;0.13;;;20.40;99.10;;;;;;4209904;28;20036;-60
2023/08/08 10:31:04;;;;;;;0.80;0.32;;;20.20;99.40;;;;;;4210663;28;20105;-62